Time;durP1;ratioP1;P1;durP2;ratioP2;P2;SDS_P1;SDS_P2;PMS_P1;PMS_P2;Temp;Humidity;BMP_temperature;BMP_pressure;BME280_temperature;BME280_humidity;BME280_pressure;Samples;Min_cycle;Max_cycle;Signal;HPM_P1;HPM_P2
2022/08/03 00:00:40;;;;;;;;;;;20.80;99.90;;;;;;5005912;28;20050;-81
2022/08/03 00:03:19;;;;;;;7.95;3.90;;;20.70;99.90;;;;;;5007396;28;20216;-81
2022/08/03 00:05:53;;;;;;;9.90;3.97;;;20.70;99.90;;;;;;4970487;28;20053;-80
2022/08/03 00:08:34;;;;;;;6.90;2.90;;;20.60;99.90;;;;;;5006313;28;20033;-81
2022/08/03 00:11:14;;;;;;;4.72;2.08;;;20.60;99.90;;;;;;4989634;28;20033;-80
2022/08/03 00:14:15;;;;;;;3.58;0.70;;;20.60;99.90;;;;;;4989382;28;20029;-80
2022/08/03 00:16:57;;;;;;;4.32;0.80;;;20.50;99.90;;;;;;4970250;28;20042;-80
2022/08/03 00:19:45;;;;;;;1.83;0.80;;;20.50;99.90;;;;;;4971790;28;20051;-80
2022/08/03 00:22:28;;;;;;;2.90;0.85;;;20.40;99.90;;;;;;4933482;28;20410;-82
2022/08/03 00:25:27;;;;;;;4.00;1.05;;;20.40;99.90;;;;;;4956562;28;20520;-81
2022/08/03 00:28:03;;;;;;;3.22;0.60;;;20.40;99.90;;;;;;4966505;28;20485;-80
2022/08/03 00:31:07;;;;;;;3.03;0.60;;;20.30;99.90;;;;;;4963315;28;20042;-81
2022/08/03 00:33:45;;;;;;;2.63;0.60;;;20.30;99.90;;;;;;4966816;28;20552;-82
2022/08/03 00:36:23;;;;;;;2.95;0.70;;;20.30;99.90;;;;;;4942395;28;20498;-82
2022/08/03 00:39:14;;;;;;;4.60;0.90;;;20.20;99.90;;;;;;4943625;28;20039;-86
2022/08/03 00:48:54;;;;;;;4.82;1.27;;;20.10;99.90;;;;;;4867176;29;20412;-88
2022/08/03 00:54:44;;;;;;;8.90;6.63;;;20.00;99.90;;;;;;4884391;29;20032;-87
2022/08/03 00:57:41;;;;;;;11.95;8.82;;;20.00;99.90;;;;;;4888698;29;20044;-88
2022/08/03 01:00:45;;;;;;;9.50;5.65;;;20.00;99.90;;;;;;4876707;29;20521;-87
2022/08/03 01:03:44;;;;;;;5.72;3.60;;;20.00;99.90;;;;;;4878932;29;21115;-87
2022/08/03 01:07:09;;;;;;;5.63;1.67;;;19.90;99.90;;;;;;4880259;29;20059;-87
2022/08/03 01:10:25;;;;;;;2.30;0.90;;;19.90;99.90;;;;;;4866544;29;20039;-87
2022/08/03 01:13:57;;;;;;;2.58;0.77;;;19.90;99.90;;;;;;4862421;29;20029;-87
2022/08/03 01:16:27;;;;;;;;;;;19.80;99.90;;;;;;4851439;29;20045;-87
2022/08/03 01:19:47;;;;;;;2.15;0.57;;;19.80;99.90;;;;;;4923567;28;19918;-82
2022/08/03 01:22:49;;;;;;;2.17;0.52;;;19.70;99.90;;;;;;4973663;28;20176;-81
2022/08/03 01:26:04;;;;;;;1.85;0.55;;;19.80;99.90;;;;;;4955194;28;20047;-81
2022/08/03 01:32:34;;;;;;;2.75;0.60;;;19.70;99.90;;;;;;4976190;28;20041;-81
2022/08/03 01:40:16;;;;;;;1.58;0.40;;;19.60;99.90;;;;;;4917817;29;20052;-86
2022/08/03 01:47:36;;;;;;;2.05;0.60;;;19.60;99.90;;;;;;4911628;28;20035;-81
2022/08/03 01:50:39;;;;;;;6.05;0.73;;;19.50;99.90;;;;;;4867544;28;20805;-81
2022/08/03 01:53:32;;;;;;;3.28;0.65;;;19.50;99.90;;;;;;4915353;28;20165;-81
2022/08/03 01:56:32;;;;;;;2.53;0.60;;;19.50;99.90;;;;;;4886626;29;20617;-81
2022/08/03 01:59:08;;;;;;;4.22;0.80;;;19.50;99.90;;;;;;4889815;29;21798;-81
2022/08/03 02:01:40;;;;;;;2.15;0.50;;;19.50;99.90;;;;;;4896275;29;20416;-80
2022/08/03 02:04:10;;;;;;;;;;;19.50;99.90;;;;;;4905632;29;20040;-80
2022/08/03 02:06:41;;;;;;;1.33;0.60;;;19.40;99.90;;;;;;4908171;29;19920;-82
2022/08/03 02:09:20;;;;;;;2.10;0.60;;;19.40;99.90;;;;;;4894704;29;20036;-81
2022/08/03 02:11:50;;;;;;;2.85;0.60;;;19.40;99.90;;;;;;4894687;29;20044;-81
2022/08/03 02:14:22;;;;;;;1.67;0.68;;;19.40;99.90;;;;;;4876765;29;20618;-81
2022/08/03 02:16:50;;;;;;;1.80;0.60;;;19.40;99.90;;;;;;4907699;29;20048;-81
2022/08/03 02:19:19;;;;;;;3.83;0.63;;;19.40;99.90;;;;;;4910708;29;20043;-81
2022/08/03 02:21:53;;;;;;;2.45;0.60;;;19.30;99.90;;;;;;4909826;29;20064;-81
2022/08/03 02:24:24;;;;;;;3.67;0.98;;;19.30;99.90;;;;;;4884569;29;20389;-81
2022/08/03 02:26:53;;;;;;;4.15;0.77;;;19.30;99.90;;;;;;4922367;29;20035;-81
2022/08/03 02:29:24;;;;;;;1.85;0.57;;;19.30;99.90;;;;;;4913690;29;20035;-81
2022/08/03 02:31:53;;;;;;;1.45;0.50;;;19.30;99.90;;;;;;4930701;28;20038;-81
2022/08/03 02:34:35;;;;;;;3.83;0.60;;;19.30;99.90;;;;;;4967533;28;20350;-81
2022/08/03 02:37:06;;;;;;;3.80;0.80;;;19.20;99.90;;;;;;4980827;28;20044;-82
2022/08/03 02:39:36;;;;;;;4.50;0.70;;;19.20;99.90;;;;;;5006805;28;20037;-81
2022/08/03 02:42:07;;;;;;;2.30;0.75;;;19.20;99.90;;;;;;4992384;28;20048;-83
2022/08/03 02:44:36;;;;;;;2.08;0.80;;;19.20;99.90;;;;;;5006795;28;20033;-82
2022/08/03 02:47:08;;;;;;;3.35;0.60;;;19.20;99.90;;;;;;4993061;28;20028;-82
2022/08/03 02:49:39;;;;;;;2.00;0.45;;;19.10;99.90;;;;;;5003188;28;20029;-80
2022/08/03 02:52:13;;;;;;;2.28;0.55;;;19.10;99.90;;;;;;5006410;28;20449;-81
2022/08/03 02:54:41;;;;;;;4.05;0.85;;;19.10;99.90;;;;;;4988234;28;20017;-82
2022/08/03 02:57:10;;;;;;;4.07;0.95;;;19.10;99.90;;;;;;4992083;28;20373;-80
2022/08/03 02:59:38;;;;;;;3.47;0.60;;;19.10;99.90;;;;;;5007081;28;20107;-80
2022/08/03 03:02:05;;;;;;;2.22;0.60;;;19.00;99.90;;;;;;4992950;28;20040;-81
2022/08/03 03:04:33;;;;;;;3.42;1.05;;;19.00;99.90;;;;;;4991091;28;20042;-78
2022/08/03 03:07:00;;;;;;;4.40;1.33;;;19.00;99.90;;;;;;5025015;28;20064;-82
2022/08/03 03:09:27;;;;;;;4.28;1.30;;;19.00;99.90;;;;;;4975067;28;20526;-80
2022/08/03 03:11:55;;;;;;;3.97;1.05;;;19.00;99.90;;;;;;4992429;28;20025;-79
2022/08/03 03:14:22;;;;;;;3.00;1.40;;;18.90;99.90;;;;;;4990821;28;20476;-79
2022/08/03 03:16:50;;;;;;;3.78;0.82;;;18.90;99.90;;;;;;5009215;28;20033;-79
2022/08/03 03:19:20;;;;;;;2.35;0.60;;;18.90;99.90;;;;;;5008723;28;20046;-79
2022/08/03 03:21:47;;;;;;;2.50;0.70;;;18.90;99.90;;;;;;5008893;28;20029;-79
2022/08/03 03:24:15;;;;;;;1.63;0.60;;;18.90;99.90;;;;;;4989247;28;20034;-79
2022/08/03 03:26:42;;;;;;;2.58;0.70;;;18.90;99.90;;;;;;5008846;28;20485;-79
2022/08/03 03:29:08;;;;;;;2.13;0.98;;;18.90;99.90;;;;;;4993223;28;20022;-80
2022/08/03 03:31:36;;;;;;;2.70;0.85;;;18.80;99.90;;;;;;4978725;28;20041;-80
2022/08/03 03:34:06;;;;;;;3.75;1.13;;;18.90;99.90;;;;;;4975565;28;20690;-80
2022/08/03 03:36:36;;;;;;;2.65;0.93;;;18.80;99.90;;;;;;5010327;28;20377;-81
2022/08/03 03:39:03;;;;;;;4.28;1.83;;;18.80;99.90;;;;;;5008983;28;20045;-80
2022/08/03 03:41:34;;;;;;;4.55;2.10;;;18.80;99.90;;;;;;5009250;28;20404;-82
2022/08/03 03:44:01;;;;;;;4.60;3.05;;;18.80;99.90;;;;;;5007309;28;20044;-80
2022/08/03 03:46:27;;;;;;;7.10;4.45;;;18.80;99.90;;;;;;4990153;28;20022;-81
2022/08/03 03:48:54;;;;;;;10.02;5.68;;;18.80;99.90;;;;;;5005727;28;20026;-81
2022/08/03 03:51:20;;;;;;;13.43;9.57;;;18.80;99.90;;;;;;5008106;28;20037;-81
2022/08/03 03:53:58;;;;;;;13.13;7.97;;;18.80;99.90;;;;;;4992068;28;20045;-80
2022/08/03 03:56:25;;;;;;;5.82;4.45;;;18.70;99.90;;;;;;4998815;28;20029;-80
2022/08/03 03:58:52;;;;;;;4.47;2.90;;;18.70;99.90;;;;;;4995045;28;20037;-80
2022/08/03 04:01:19;;;;;;;4.85;2.28;;;18.70;99.90;;;;;;4993041;28;20052;-79
2022/08/03 04:03:48;;;;;;;2.72;1.40;;;18.70;99.90;;;;;;4992838;28;20037;-79
2022/08/03 04:12:06;;;;;;;4.93;1.00;;;18.70;99.90;;;;;;5025858;28;20052;-78
2022/08/03 04:14:53;;;;;;;2.85;1.10;;;18.70;99.90;;;;;;4973863;28;20037;-80
2022/08/03 04:17:22;;;;;;;3.17;0.70;;;18.70;99.90;;;;;;5006748;28;20033;-79
2022/08/03 04:19:52;;;;;;;2.55;0.75;;;18.70;99.90;;;;;;5007487;28;20044;-79
2022/08/03 04:22:22;;;;;;;4.18;1.02;;;18.70;99.90;;;;;;5006288;28;20037;-79
2022/08/03 04:24:54;;;;;;;2.95;0.88;;;18.70;99.90;;;;;;4989916;28;20026;-79
2022/08/03 04:27:26;;;;;;;3.40;0.90;;;18.70;99.90;;;;;;4992644;28;20034;-78
2022/08/03 04:29:55;;;;;;;2.40;0.70;;;18.70;99.90;;;;;;4989418;28;20491;-78
2022/08/03 04:32:25;;;;;;;2.40;0.88;;;18.70;99.90;;;;;;4992429;28;20045;-79
2022/08/03 04:34:51;;;;;;;3.20;0.80;;;18.80;99.90;;;;;;5006226;28;20025;-79
2022/08/03 04:37:31;;;;;;;6.20;1.02;;;18.80;99.90;;;;;;4993146;28;20033;-79
2022/08/03 04:40:33;;;;;;;2.28;0.98;;;18.90;99.90;;;;;;5009252;28;20044;-79
2022/08/03 04:43:00;;;;;;;3.80;0.77;;;19.00;99.90;;;;;;5025640;28;20021;-79
2022/08/03 04:45:31;;;;;;;3.03;0.90;;;19.10;99.90;;;;;;4989491;28;20040;-79
2022/08/03 04:47:59;;;;;;;2.97;0.90;;;19.20;99.90;;;;;;5026371;28;20024;-79
2022/08/03 04:50:26;;;;;;;3.25;1.30;;;19.30;99.90;;;;;;5023903;28;20388;-79
2022/08/03 04:53:10;;;;;;;2.75;1.35;;;19.40;99.90;;;;;;5025330;28;20033;-79
2022/08/03 04:55:37;;;;;;;3.45;0.80;;;19.50;99.90;;;;;;5003778;28;20036;-79
2022/08/03 04:58:11;;;;;;;3.33;0.82;;;19.60;99.90;;;;;;5005868;28;20048;-79
2022/08/03 05:00:50;;;;;;;4.80;1.75;;;19.60;99.90;;;;;;4987567;28;20389;-79
2022/08/03 05:03:17;;;;;;;3.33;1.15;;;19.70;99.90;;;;;;4973055;28;20037;-79
2022/08/03 05:05:47;;;;;;;2.63;0.95;;;19.70;99.90;;;;;;4989764;28;20037;-79
2022/08/03 05:08:18;;;;;;;5.68;1.17;;;19.90;99.90;;;;;;4961335;28;20033;-78
2022/08/03 05:10:46;;;;;;;4.53;1.88;;;20.00;99.90;;;;;;4986203;28;20034;-78
2022/08/03 05:13:13;;;;;;;5.03;1.50;;;20.10;99.90;;;;;;4973750;28;20042;-78
2022/08/03 05:15:48;;;;;;;4.13;2.35;;;20.10;99.90;;;;;;4956817;28;20046;-78
2022/08/03 05:18:14;;;;;;;4.05;2.17;;;20.20;99.90;;;;;;4976069;28;20041;-79
2022/08/03 05:20:41;;;;;;;7.28;2.17;;;20.30;99.90;;;;;;4987517;28;20038;-79
2022/08/03 05:23:08;;;;;;;4.93;1.63;;;20.30;99.90;;;;;;5006360;28;20393;-79
2022/08/03 05:25:50;;;;;;;5.15;2.00;;;20.40;99.90;;;;;;5002758;28;20401;-78
2022/08/03 05:28:27;;;;;;;4.50;1.70;;;20.40;99.90;;;;;;4974188;28;20045;-79
2022/08/03 05:31:04;;;;;;;8.05;2.53;;;20.50;99.90;;;;;;4991075;28;20394;-78
2022/08/03 05:33:31;;;;;;;5.55;1.58;;;20.50;99.90;;;;;;4993191;28;20045;-78
2022/08/03 05:36:05;;;;;;;9.38;2.55;;;20.60;99.90;;;;;;4974931;28;20053;-78
2022/08/03 05:38:35;;;;;;;5.10;1.90;;;20.80;99.90;;;;;;5009424;28;20441;-80
2022/08/03 05:41:04;;;;;;;6.70;2.30;;;21.00;99.90;;;;;;4992037;28;20037;-78
2022/08/03 05:44:01;;;;;;;5.43;2.50;;;21.20;99.90;;;;;;4991812;28;20512;-78
2022/08/03 05:46:55;;;;;;;5.25;1.52;;;21.40;99.90;;;;;;4973697;28;21469;-79
2022/08/03 05:49:50;;;;;;;8.02;2.35;;;21.60;99.90;;;;;;4991838;28;20042;-78
2022/08/03 05:52:41;;;;;;;7.20;2.88;;;21.70;99.90;;;;;;4963152;28;20029;-78
2022/08/03 05:55:21;;;;;;;9.45;2.42;;;21.90;99.90;;;;;;5006889;28;20366;-78
2022/08/03 05:57:48;;;;;;;4.03;1.92;;;22.10;99.90;;;;;;4976761;28;20036;-79
2022/08/03 06:00:18;;;;;;;7.22;2.47;;;22.20;99.90;;;;;;4972189;28;20141;-78
2022/08/03 06:02:56;;;;;;;3.67;1.50;;;22.40;99.90;;;;;;4957709;28;20412;-78
2022/08/03 06:05:38;;;;;;;4.05;1.35;;;22.50;99.90;;;;;;4974741;28;20038;-79
2022/08/03 06:08:05;;;;;;;4.78;1.33;;;22.70;99.90;;;;;;5008613;28;20053;-79
2022/08/03 06:11:33;;;;;;;8.70;2.13;;;22.80;99.90;;;;;;4981852;28;20042;-83
2022/08/03 06:14:12;;;;;;;6.50;1.40;;;23.00;99.90;;;;;;4924618;28;20049;-80
2022/08/03 06:16:38;;;;;;;3.90;1.45;;;23.00;99.90;;;;;;4974764;28;20045;-79
2022/08/03 06:19:12;;;;;;;5.68;1.65;;;23.10;99.90;;;;;;5028635;28;20022;-80
2022/08/03 06:21:55;;;;;;;6.13;1.38;;;23.20;99.90;;;;;;4981379;28;20038;-86
2022/08/03 06:24:31;;;;;;;5.85;1.17;;;23.30;99.90;;;;;;5002539;28;20065;-78
2022/08/03 06:27:04;;;;;;;4.63;1.23;;;23.20;99.90;;;;;;4990804;28;20045;-81
2022/08/03 06:29:35;;;;;;;5.53;1.30;;;23.20;99.90;;;;;;4997030;28;20037;-82
2022/08/03 06:32:02;;;;;;;5.38;1.40;;;23.20;99.90;;;;;;5010924;28;20060;-82
2022/08/03 06:34:28;;;;;;;6.72;1.45;;;23.30;99.90;;;;;;5026755;28;20041;-81
2022/08/03 06:36:55;;;;;;;4.43;1.02;;;23.40;99.90;;;;;;4979783;28;20052;-82
2022/08/03 06:39:44;;;;;;;4.40;1.20;;;23.70;99.90;;;;;;4965663;28;20034;-80
2022/08/03 06:42:16;;;;;;;4.85;1.40;;;24.10;99.90;;;;;;4991674;28;20045;-79
2022/08/03 06:44:46;;;;;;;6.22;1.77;;;24.60;99.90;;;;;;5007149;28;20048;-81
2022/08/03 06:47:16;;;;;;;7.05;1.20;;;24.70;99.90;;;;;;5026501;28;20381;-79
2022/08/03 06:49:53;;;;;;;6.68;1.20;;;24.80;99.90;;;;;;5029410;28;20508;-79
2022/08/03 06:52:23;;;;;;;7.53;1.40;;;24.80;99.90;;;;;;4994808;28;20026;-78
2022/08/03 06:54:51;;;;;;;4.30;1.38;;;24.80;99.90;;;;;;5009608;28;20106;-80
2022/08/03 06:57:22;;;;;;;4.85;1.00;;;24.70;99.90;;;;;;4994932;28;20504;-81
2022/08/03 07:03:25;;;;;;;4.18;0.77;;;25.00;99.90;;;;;;4986749;28;20041;-85
2022/08/03 07:05:53;;;;;;;4.75;1.20;;;25.30;99.90;;;;;;5005738;28;20516;-82
2022/08/03 07:08:24;;;;;;;6.95;1.50;;;25.50;99.90;;;;;;5008865;28;20050;-80
2022/08/03 07:10:50;;;;;;;4.28;1.05;;;25.50;99.90;;;;;;5010605;28;20391;-82
2022/08/03 07:13:29;;;;;;;;;;;;;;;;;;;;;
2022/08/03 07:16:24;;;;;;;7.32;1.42;;;25.50;99.90;;;;;;4995441;28;20041;-80
2022/08/03 07:19:34;;;;;;;7.18;1.85;;;25.50;99.90;;;;;;4993025;28;20049;-81
2022/08/03 07:22:05;;;;;;;6.68;1.65;;;25.50;99.90;;;;;;4990355;28;20029;-81
2022/08/03 07:24:53;;;;;;;9.02;1.92;;;25.40;99.90;;;;;;5007362;28;20536;-83
2022/08/03 07:27:49;;;;;;;7.97;1.85;;;25.50;99.90;;;;;;4975082;28;20049;-80
2022/08/03 07:30:20;;;;;;;8.75;1.05;;;25.50;99.90;;;;;;5021169;28;20041;-81
2022/08/03 07:32:49;;;;;;;10.25;1.40;;;25.50;99.90;;;;;;4962019;28;21059;-82
2022/08/03 07:35:21;;;;;;;6.80;1.40;;;25.70;99.90;;;;;;4974652;28;20045;-83
2022/08/03 07:38:03;;;;;;;6.15;1.10;;;25.80;99.90;;;;;;5011149;28;20040;-83
2022/08/03 07:40:35;;;;;;;7.68;1.50;;;25.80;99.90;;;;;;5007941;28;20034;-81
2022/08/03 07:43:02;;;;;;;7.55;1.67;;;25.90;99.90;;;;;;4994186;28;20496;-80
2022/08/03 07:45:38;;;;;;;7.25;0.77;;;25.90;99.90;;;;;;5006072;28;20041;-81
2022/08/03 07:48:08;;;;;;;8.40;2.88;;;26.20;99.90;;;;;;4995149;28;20393;-80
2022/08/03 07:50:34;;;;;;;5.38;2.25;;;26.30;99.80;;;;;;5025360;28;20050;-80
2022/08/03 07:53:11;;;;;;;7.90;2.22;;;26.20;99.60;;;;;;5009982;28;20889;-82
2022/08/03 07:55:37;;;;;;;9.85;2.10;;;26.20;99.50;;;;;;5023832;28;20388;-80
2022/08/03 07:58:14;;;;;;;9.20;1.92;;;26.20;99.40;;;;;;4993180;28;20033;-81
2022/08/03 08:00:41;;;;;;;8.05;3.00;;;26.20;99.20;;;;;;4992539;28;20055;-81
2022/08/03 08:03:14;;;;;;;4.63;1.30;;;26.20;99.00;;;;;;4991735;28;20034;-81
2022/08/03 08:05:48;;;;;;;4.10;0.82;;;26.30;98.90;;;;;;4975523;28;20045;-81
2022/08/03 08:08:16;;;;;;;6.03;1.20;;;26.50;98.70;;;;;;5008953;28;20048;-80
2022/08/03 08:11:04;;;;;;;5.90;1.02;;;26.70;98.50;;;;;;4993644;28;20044;-79
2022/08/03 08:13:38;;;;;;;5.45;0.95;;;26.70;98.30;;;;;;4994084;28;20040;-79
2022/08/03 08:16:19;;;;;;;4.63;1.05;;;26.90;98.20;;;;;;5023601;28;20381;-78
2022/08/03 08:18:48;;;;;;;5.55;1.35;;;27.00;97.80;;;;;;4977779;28;20033;-79
2022/08/03 08:21:22;;;;;;;6.45;1.67;;;27.20;97.60;;;;;;4993114;28;20021;-79
2022/08/03 08:23:52;;;;;;;7.75;4.72;;;27.30;97.40;;;;;;5006181;28;20032;-79
2022/08/03 08:26:21;;;;;;;6.30;2.67;;;27.50;97.20;;;;;;5003936;28;20037;-79
2022/08/03 08:28:48;;;;;;;8.57;1.85;;;27.50;97.00;;;;;;4990286;28;20042;-79
2022/08/03 08:31:17;;;;;;;5.57;1.42;;;27.60;96.60;;;;;;5007058;28;20485;-80
2022/08/03 08:33:44;;;;;;;11.63;2.03;;;27.80;96.40;;;;;;5005969;28;20034;-79
2022/08/03 08:36:10;;;;;;;3.80;0.90;;;27.90;96.00;;;;;;4987241;28;20045;-79
2022/08/03 08:38:43;;;;;;;4.40;0.75;;;28.00;95.80;;;;;;4984837;28;20048;-79
2022/08/03 08:41:13;;;;;;;9.25;1.58;;;28.10;95.60;;;;;;4956908;28;20155;-79
2022/08/03 08:43:42;;;;;;;7.60;1.42;;;28.30;95.10;;;;;;4963029;28;20050;-79
2022/08/03 08:46:13;;;;;;;7.22;1.42;;;28.30;94.60;;;;;;4964470;28;20022;-79
2022/08/03 08:48:42;;;;;;;11.95;4.03;;;28.40;94.40;;;;;;4968477;28;20038;-80
2022/08/03 08:51:12;;;;;;;8.63;2.00;;;28.50;94.00;;;;;;5002127;28;20041;-79
2022/08/03 08:53:44;;;;;;;8.32;1.83;;;28.60;93.90;;;;;;4974107;28;20033;-80
2022/08/03 08:56:16;;;;;;;7.75;3.28;;;28.70;93.70;;;;;;4981491;28;20024;-79
2022/08/03 08:58:56;;;;;;;7.57;1.88;;;28.80;93.60;;;;;;4985032;28;20054;-79
2022/08/03 09:01:24;;;;;;;7.60;1.60;;;28.90;93.40;;;;;;4987461;28;20509;-79
2022/08/03 09:03:53;;;;;;;13.18;1.55;;;29.00;93.20;;;;;;4986258;28;20037;-79
2022/08/03 09:06:21;;;;;;;10.00;1.95;;;29.10;93.00;;;;;;4998219;28;20042;-79
2022/08/03 09:08:54;;;;;;;5.40;1.00;;;29.20;92.60;;;;;;4987183;28;20065;-79
2022/08/03 09:11:22;;;;;;;6.88;1.33;;;29.30;92.20;;;;;;5025358;28;20014;-79
2022/08/03 09:13:49;;;;;;;14.32;2.10;;;29.30;91.90;;;;;;5006668;28;20040;-79
2022/08/03 09:16:21;;;;;;;8.20;1.30;;;29.40;91.70;;;;;;4972638;28;20041;-80
2022/08/03 09:18:52;;;;;;;5.93;1.35;;;29.50;91.60;;;;;;5006460;28;20112;-79
2022/08/03 09:21:30;;;;;;;6.93;1.05;;;29.60;91.50;;;;;;5024255;28;20013;-79
2022/08/03 09:23:58;;;;;;;6.90;1.00;;;29.80;91.40;;;;;;5025313;28;20388;-80
2022/08/03 09:26:29;;;;;;;14.65;1.85;;;30.00;91.20;;;;;;4990955;28;20022;-79
2022/08/03 09:29:00;;;;;;;9.20;1.73;;;30.00;90.80;;;;;;4975647;28;20065;-83
2022/08/03 09:31:35;;;;;;;7.75;1.38;;;30.10;90.30;;;;;;4992073;28;20349;-81
2022/08/03 09:34:06;;;;;;;5.43;1.23;;;30.10;90.20;;;;;;5006840;28;20042;-80
2022/08/03 09:36:53;;;;;;;9.48;3.30;;;30.10;90.10;;;;;;4991127;28;20034;-84
2022/08/03 09:39:30;;;;;;;18.70;9.73;;;30.20;89.70;;;;;;4992159;28;20404;-84
2022/08/03 09:42:44;;;;;;;9.63;3.83;;;30.30;89.80;;;;;;5012668;28;20493;-84
2022/08/03 09:45:27;;;;;;;9.63;3.40;;;30.40;89.20;;;;;;5005775;28;20033;-80
2022/08/03 09:47:58;;;;;;;6.75;2.13;;;30.50;87.20;;;;;;4973927;28;20507;-81
2022/08/03 09:50:26;;;;;;;10.68;1.92;;;30.60;87.30;;;;;;5007371;28;20024;-84
2022/08/03 09:53:00;;;;;;;7.78;1.27;;;30.70;86.80;;;;;;4975701;28;20029;-80
2022/08/03 09:55:36;;;;;;;6.57;1.58;;;30.80;86.40;;;;;;4987345;28;23095;-81
2022/08/03 09:58:10;;;;;;;7.88;1.58;;;30.90;86.20;;;;;;4976385;28;20034;-80
2022/08/03 10:01:03;;;;;;;9.68;1.52;;;31.00;86.00;;;;;;4991296;28;20041;-80
2022/08/03 10:03:38;;;;;;;8.73;1.38;;;31.00;84.90;;;;;;4992050;28;20049;-81
2022/08/03 10:06:25;;;;;;;9.43;1.65;;;30.90;84.90;;;;;;4968136;28;20065;-81
2022/08/03 10:09:22;;;;;;;7.32;1.20;;;30.90;84.60;;;;;;5007821;28;20373;-81
2022/08/03 10:11:50;;;;;;;9.80;1.73;;;31.00;84.50;;;;;;4976232;28;20060;-81
2022/08/03 10:14:21;;;;;;;9.98;2.13;;;31.00;83.60;;;;;;4989292;28;20033;-81
2022/08/03 10:16:54;;;;;;;8.88;1.55;;;31.00;83.10;;;;;;5008072;28;20041;-81
2022/08/03 10:19:20;;;;;;;11.75;4.18;;;31.10;82.90;;;;;;5008019;28;20018;-81
2022/08/03 10:21:54;;;;;;;12.40;3.15;;;31.20;82.80;;;;;;4980176;28;20406;-81
2022/08/03 10:24:30;;;;;;;18.08;6.35;;;31.30;82.80;;;;;;5009337;28;20036;-81
2022/08/03 10:27:03;;;;;;;11.15;2.45;;;31.50;81.20;;;;;;5011382;28;20036;-81
2022/08/03 10:29:41;;;;;;;10.23;2.00;;;31.60;80.90;;;;;;5010246;28;20037;-80
2022/08/03 10:32:30;;;;;;;7.82;1.88;;;31.80;80.10;;;;;;4994149;28;20408;-80
2022/08/03 10:35:19;;;;;;;8.40;1.40;;;32.00;78.90;;;;;;4992305;28;20045;-83
2022/08/03 10:38:08;;;;;;;13.10;2.38;;;32.10;77.90;;;;;;5010127;28;20480;-83
2022/08/03 10:40:37;;;;;;;7.05;1.52;;;32.30;77.50;;;;;;5028802;28;20470;-83
2022/08/03 10:43:21;;;;;;;10.23;1.50;;;32.50;77.70;;;;;;5010567;28;20034;-83
2022/08/03 10:45:48;;;;;;;10.77;1.85;;;32.60;76.50;;;;;;4991782;28;20029;-82
2022/08/03 10:48:16;;;;;;;4.75;1.00;;;32.80;76.00;;;;;;5011335;28;20045;-81
2022/08/03 10:50:44;;;;;;;6.57;1.48;;;33.00;75.90;;;;;;5012380;28;20489;-82
2022/08/03 10:53:35;;;;;;;5.85;1.02;;;33.20;74.90;;;;;;4981375;28;20025;-82
2022/08/03 10:58:53;;;;;;;11.40;2.05;;;33.60;73.70;;;;;;5010133;28;20038;-82
2022/08/03 11:01:49;;;;;;;10.40;2.20;;;34.00;72.70;;;;;;5007893;28;20041;-82
2022/08/03 11:04:23;;;;;;;8.02;1.30;;;34.30;71.70;;;;;;5006677;28;20041;-83
2022/08/03 11:07:22;;;;;;;10.05;1.83;;;34.60;70.10;;;;;;5005125;28;20049;-82
2022/08/03 11:09:52;;;;;;;5.65;1.40;;;35.00;69.60;;;;;;5023719;28;20021;-83
2022/08/03 11:12:33;;;;;;;7.88;1.15;;;35.40;68.40;;;;;;4960756;28;20033;-82
2022/08/03 11:15:06;;;;;;;5.40;1.27;;;35.70;66.70;;;;;;5001387;28;20050;-78
2022/08/03 11:17:34;;;;;;;4.75;0.85;;;36.00;65.00;;;;;;5005540;28;20030;-78
2022/08/03 11:20:00;;;;;;;6.50;1.48;;;36.20;63.90;;;;;;5024883;28;20021;-76
2022/08/03 11:22:48;;;;;;;6.55;1.83;;;36.50;62.80;;;;;;5006809;28;20055;-76
2022/08/03 11:25:15;;;;;;;7.65;1.33;;;36.70;61.70;;;;;;4952950;28;20022;-79
2022/08/03 11:27:41;;;;;;;10.18;2.00;;;36.70;61.20;;;;;;5007421;28;20021;-79
2022/08/03 11:30:28;;;;;;;8.00;1.52;;;37.00;60.80;;;;;;5025476;28;20018;-78
2022/08/03 11:32:59;;;;;;;9.55;2.15;;;37.40;59.90;;;;;;5006381;28;20033;-79
2022/08/03 11:35:29;;;;;;;6.20;1.15;;;37.50;59.60;;;;;;4988366;28;20025;-79
2022/08/03 11:38:05;;;;;;;7.30;1.63;;;37.70;58.70;;;;;;5005890;28;20476;-78
2022/08/03 11:40:39;;;;;;;6.25;1.40;;;37.80;57.80;;;;;;5007143;28;24137;-77
2022/08/03 11:43:28;;;;;;;8.60;1.00;;;38.00;56.80;;;;;;4990327;28;20032;-78
2022/08/03 11:46:04;;;;;;;6.80;1.35;;;38.20;55.50;;;;;;4974924;28;20677;-79
2022/08/03 11:48:35;;;;;;;6.78;1.38;;;38.40;55.20;;;;;;5005832;28;20017;-76
2022/08/03 11:51:02;;;;;;;6.05;1.35;;;38.60;55.30;;;;;;5006144;28;20017;-76
2022/08/03 11:53:30;;;;;;;5.78;1.00;;;38.90;55.10;;;;;;5023046;28;20034;-75
2022/08/03 11:56:01;;;;;;;7.72;1.63;;;39.30;55.20;;;;;;5001868;28;20040;-76
2022/08/03 11:58:28;;;;;;;;;;;39.60;53.30;;;;;;5024857;28;20029;-76
2022/08/03 12:01:07;;;;;;;5.35;0.90;;;39.80;52.30;;;;;;5006737;28;19916;-77
2022/08/03 12:03:35;;;;;;;9.85;1.52;;;40.00;50.70;;;;;;5006383;28;20040;-76
2022/08/03 12:06:12;;;;;;;6.18;1.60;;;40.20;50.50;;;;;;5003118;28;20009;-77
2022/08/03 12:09:15;;;;;;;6.97;0.95;;;40.40;49.70;;;;;;4996763;28;20035;-76
2022/08/03 12:11:54;;;;;;;6.72;1.85;;;40.60;48.50;;;;;;4965582;28;20029;-76
2022/08/03 12:14:50;;;;;;;6.28;1.02;;;40.60;48.30;;;;;;4951192;28;20022;-76
2022/08/03 12:17:48;;;;;;;7.63;1.05;;;40.80;47.90;;;;;;4942441;28;20034;-76
2022/08/03 12:20:29;;;;;;;8.25;1.10;;;41.00;47.40;;;;;;4945852;28;20136;-76
2022/08/03 12:23:11;;;;;;;6.72;1.35;;;41.20;47.10;;;;;;4962147;28;20046;-77
2022/08/03 12:25:50;;;;;;;6.22;1.20;;;41.50;46.90;;;;;;4922551;28;20042;-77
2022/08/03 12:29:04;;;;;;;5.22;1.23;;;41.80;46.10;;;;;;4919101;28;20049;-77
2022/08/03 12:32:20;;;;;;;6.75;1.50;;;41.80;45.40;;;;;;4926546;28;20030;-77
2022/08/03 12:35:09;;;;;;;7.35;1.17;;;42.00;45.30;;;;;;4929045;28;20035;-77
2022/08/03 12:37:55;;;;;;;5.63;1.15;;;42.40;45.20;;;;;;4942090;28;20034;-77
2022/08/03 12:40:42;;;;;;;7.32;1.70;;;42.80;44.60;;;;;;4962755;28;20094;-76
2022/08/03 12:43:29;;;;;;;3.92;0.90;;;42.90;44.00;;;;;;4932815;28;20516;-80
2022/08/03 12:46:19;;;;;;;6.15;1.45;;;43.10;43.60;;;;;;4956367;28;20042;-82
2022/08/03 12:49:01;;;;;;;6.15;1.90;;;43.00;42.80;;;;;;4950409;28;20046;-84
2022/08/03 12:51:48;;;;;;;9.63;1.67;;;43.00;42.20;;;;;;4964743;28;20034;-84
2022/08/03 12:54:59;;;;;;;5.75;2.00;;;43.10;42.70;;;;;;4960585;28;20042;-84
2022/08/03 12:58:00;;;;;;;8.43;2.30;;;43.40;42.70;;;;;;4964321;28;20047;-83
2022/08/03 13:00:54;;;;;;;4.25;0.80;;;43.80;42.00;;;;;;4964307;28;20125;-84
2022/08/03 13:03:56;;;;;;;7.93;1.10;;;44.00;41.40;;;;;;4932418;28;20146;-84
2022/08/03 13:06:40;;;;;;;3.58;1.00;;;44.10;40.50;;;;;;4951096;28;20054;-85
2022/08/03 13:10:39;;;;;;;5.25;1.00;;;44.20;40.80;;;;;;4915644;29;20565;-85
2022/08/03 13:13:42;;;;;;;3.90;1.05;;;44.50;41.10;;;;;;4853862;29;20498;-84
2022/08/03 13:17:11;;;;;;;6.28;1.13;;;44.90;40.50;;;;;;4793813;29;20044;-83
2022/08/03 13:19:57;;;;;;;5.18;0.63;;;45.30;40.00;;;;;;4800511;29;20151;-83
2022/08/03 13:22:34;;;;;;;6.18;1.08;;;45.50;38.90;;;;;;4884587;29;20461;-83
2022/08/03 13:25:04;;;;;;;4.30;0.70;;;45.40;38.80;;;;;;4883980;29;20647;-83
2022/08/03 13:27:37;;;;;;;4.82;0.90;;;45.40;38.70;;;;;;4910860;29;20387;-83
2022/08/03 13:30:14;;;;;;;7.07;0.95;;;45.40;38.80;;;;;;4894496;29;20032;-83
2022/08/03 13:32:57;;;;;;;7.30;0.90;;;45.40;38.30;;;;;;4909736;29;20066;-83
2022/08/03 13:35:37;;;;;;;6.50;0.82;;;45.40;38.30;;;;;;4927387;29;20913;-83
2022/08/03 13:38:07;;;;;;;4.78;0.90;;;45.60;38.60;;;;;;4915718;29;20043;-78
2022/08/03 13:40:34;;;;;;;3.25;0.90;;;45.80;38.50;;;;;;4916582;28;20047;-83
2022/08/03 13:43:04;;;;;;;3.33;0.52;;;45.90;38.60;;;;;;4944601;28;20139;-83
2022/08/03 13:45:58;;;;;;;4.65;0.63;;;45.80;38.90;;;;;;4939943;28;20054;-79
2022/08/03 13:48:25;;;;;;;4.25;0.60;;;45.60;39.20;;;;;;4894731;29;20036;-79
2022/08/03 13:50:58;;;;;;;2.65;0.70;;;45.50;39.10;;;;;;4894853;29;20368;-79
2022/08/03 13:53:28;;;;;;;2.25;0.52;;;45.20;39.10;;;;;;4908631;29;20396;-78
2022/08/03 13:55:55;;;;;;;2.38;0.45;;;44.70;39.30;;;;;;4913071;29;20092;-79
2022/08/03 13:58:31;;;;;;;2.45;0.57;;;44.40;39.80;;;;;;4910733;29;20037;-79
2022/08/03 14:01:05;;;;;;;2.05;0.60;;;44.60;39.80;;;;;;4910611;29;20028;-79
2022/08/03 14:03:33;;;;;;;1.98;0.57;;;45.00;39.80;;;;;;4921332;29;20050;-79
2022/08/03 14:06:24;;;;;;;4.53;0.63;;;45.30;39.30;;;;;;4941360;28;20039;-79
2022/08/03 14:08:51;;;;;;;3.22;0.60;;;45.30;39.30;;;;;;4923677;28;20516;-78
2022/08/03 14:11:33;;;;;;;2.65;0.60;;;45.30;39.50;;;;;;4964418;28;20632;-78
2022/08/03 14:14:04;;;;;;;4.63;0.60;;;45.10;39.30;;;;;;4944790;28;20300;-78
2022/08/03 14:16:42;;;;;;;2.63;0.57;;;44.90;39.70;;;;;;4934659;28;20043;-79